Orange8 — JL6278 — position and weather

sailwx.info

Track history (hours):
 
Tides and Currents Weather Stations Pressure Air Temp Water Temp Dewpoint Dewpoint Depression Visibility Wind Speed Wind Dir Waves Ship Positions

Orange8

Last reported at 2014-Sep-20 23:33 UTC. Time now 2014-Sep-21 00:03 UTC.
Position N 34°37' E 135°26'.

Length 164 m; draft 5 m.

Type: Passenger vessel. MMSI: 431501603.

Date/timePositionNaut miles runAvg speedWind from/ knotsBaromVisibWave heightAir tempDewpointWater temp
2014-Sep-20 23:33N 34°37' E 135°26'0 0.0
2014-Sep-20 22:27N 34°37' E 135°26'0 0.0
2014-Sep-20 21:33N 34°37' E 135°26'6 5.7
2014-Sep-20 20:33N 34°36' E 135°19'1817.6
2014-Sep-20 19:33N 34°37' E 134°58'9 0.3
2014-Sep-19 15:04N 34°33' E 134°48'1017.9
2014-Sep-19 14:31N 34°37' E 134°59'1717.7
2014-Sep-19 13:33N 34°36' E 135°20'5 5.0
2014-Sep-19 12:30N 34°37' E 135°26'0 0.0
2014-Sep-19 11:30N 34°37' E 135°26'0 0.0
2014-Sep-19 10:24N 34°37' E 135°26'0 0.0
2014-Sep-19 09:12N 34°37' E 135°26'0 0.0
2014-Sep-19 08:24N 34°37' E 135°26'0 0.0
2014-Sep-19 07:30N 34°37' E 135°26'0 0.0
2014-Sep-19 06:30N 34°37' E 135°26'0 0.0
2014-Sep-19 05:30N 34°37' E 135°26'0 0.0
2014-Sep-19 04:30N 34°37' E 135°26'0 0.0
2014-Sep-19 03:30N 34°37' E 135°26'0 0.0
2014-Sep-19 02:30N 34°37' E 135°26'0 0.0
2014-Sep-19 01:30N 34°37' E 135°26'0 0.0
2014-Sep-19 00:12N 34°37' E 135°26'0 0.0
2014-Sep-18 23:18N 34°37' E 135°26'0 0.0
2014-Sep-18 22:30N 34°37' E 135°26'0 0.0
2014-Sep-18 21:12N 34°37' E 135°26'6 9.6
2014-Sep-18 20:33N 34°36' E 135°18'1717.4
2014-Sep-18 19:33N 34°36' E 134°57'1 0.0
2014-Sep-17 14:32N 34°37' E 134°58'1717.4
2014-Sep-17 13:33N 34°37' E 135°19'6 5.9
2014-Sep-17 12:33N 34°37' E 135°26'0 0.0
2014-Sep-17 11:34N 34°37' E 135°26'0 0.0
2014-Sep-17 10:09N 34°37' E 135°26'0 0.0
2014-Sep-17 09:33N 34°37' E 135°26'0 0.0
2014-Sep-17 08:27N 34°37' E 135°26'0 0.0
2014-Sep-17 07:21N 34°37' E 135°26'0 0.0
2014-Sep-17 06:34N 34°37' E 135°26'0 0.0
2014-Sep-17 05:33N 34°37' E 135°26'0 0.0
2014-Sep-17 04:33N 34°37' E 135°26'0 0.0
2014-Sep-17 03:33N 34°37' E 135°26'0 0.0
2014-Sep-17 02:34N 34°37' E 135°26'0 0.0
2014-Sep-17 01:33N 34°37' E 135°26'0 0.0
2014-Sep-17 00:34N 34°37' E 135°26'0 0.0
2014-Sep-16 23:15N 34°37' E 135°26'0 0.0
2014-Sep-16 22:28N 34°37' E 135°26'0 0.0
2014-Sep-16 21:28N 34°37' E 135°26'6 6.5
2014-Sep-16 20:34N 34°36' E 135°19'1918.7
2014-Sep-16 19:33N 34°36' E 134°56'2 0.1
2014-Sep-15 14:32N 34°37' E 134°58'1717.5
2014-Sep-15 13:33N 34°37' E 135°19'6 6.0
2014-Sep-15 12:33N 34°37' E 135°26'0 0.0
2014-Sep-15 11:33N 34°37' E 135°26'0 0.0
2014-Sep-15 10:33N 34°37' E 135°26'0 0.0
2014-Sep-15 09:33N 34°37' E 135°26'0 0.0
2014-Sep-15 08:27N 34°37' E 135°26'0 0.0
2014-Sep-15 07:33N 34°37' E 135°26'0 0.0
2014-Sep-15 06:33N 34°37' E 135°26'0 0.0
2014-Sep-15 05:33N 34°37' E 135°26'0 0.0
2014-Sep-15 04:33N 34°37' E 135°26'0 0.0
2014-Sep-15 03:33N 34°37' E 135°26'0 0.0
2014-Sep-15 02:15N 34°37' E 135°26'0 0.0
2014-Sep-15 01:33N 34°37' E 135°26'0 0.0
2014-Sep-15 00:33N 34°37' E 135°26'0 0.0
2014-Sep-14 23:33N 34°37' E 135°26'0 0.0
2014-Sep-14 22:27N 34°37' E 135°26'0 0.0
2014-Sep-14 21:33N 34°37' E 135°26'6 5.8
2014-Sep-14 20:33N 34°36' E 135°19'1817.8
2014-Sep-14 19:34N 34°37' E 134°57'1 0.0
2014-Sep-13 14:31N 34°37' E 134°57'1818.9
2014-Sep-13 13:33N 34°37' E 135°19'6 5.5
2014-Sep-13 12:30N 34°37' E 135°26'0 0.0
2014-Sep-13 11:30N 34°37' E 135°26'0 0.0
2014-Sep-13 10:30N 34°37' E 135°26'0 0.0
2014-Sep-13 09:30N 34°37' E 135°26'0 0.0
2014-Sep-13 08:30N 34°37' E 135°26'0 0.0
2014-Sep-13 07:30N 34°37' E 135°26'0 0.0
2014-Sep-13 06:30N 34°37' E 135°26'0 0.0
2014-Sep-13 05:24N 34°37' E 135°26'0 0.0
2014-Sep-13 04:30N 34°37' E 135°26'0 0.0
2014-Sep-13 03:30N 34°37' E 135°26'0 0.0
2014-Sep-13 02:30N 34°37' E 135°26'0 0.0
2014-Sep-13 01:30N 34°37' E 135°26'0 0.0
2014-Sep-13 00:30N 34°37' E 135°26'0 0.0
2014-Sep-12 23:30N 34°37' E 135°26'0 0.0
2014-Sep-12 22:30N 34°37' E 135°26'0 0.0
2014-Sep-12 21:30N 34°37' E 135°26'5 5.4
2014-Sep-12 20:34N 34°36' E 135°20'1817.8
2014-Sep-12 19:33N 34°37' E 134°58'1 0.0
2014-Sep-11 14:33N 34°37' E 134°57'1818.2
2014-Sep-11 13:33N 34°36' E 135°19'6 5.9
2014-Sep-11 12:32N 34°37' E 135°26'0 0.0
2014-Sep-11 11:32N 34°37' E 135°26'0 0.0
2014-Sep-11 10:32N 34°37' E 135°26'0 0.0
2014-Sep-11 09:26N 34°37' E 135°26'0 0.0
2014-Sep-11 08:32N 34°37' E 135°26'0 0.0
2014-Sep-11 07:32N 34°37' E 135°26'0 0.0
2014-Sep-11 06:26N 34°37' E 135°26'0 0.0
2014-Sep-11 05:32N 34°37' E 135°26'0 0.0
2014-Sep-11 04:26N 34°37' E 135°26'0 0.0
2014-Sep-11 03:32N 34°37' E 135°26'0 0.0
2014-Sep-11 02:32N 34°37' E 135°26'0 0.0
2014-Sep-11 01:32N 34°37' E 135°26'0 0.0
2014-Sep-11 00:32N 34°37' E 135°26'  
Track history (hours):
 
Tides and Currents Weather Stations Pressure Air Temp Water Temp Dewpoint Dewpoint Depression Visibility Wind Speed Wind Dir Waves Ship Positions

Orange8

Last reported at 2014-Sep-20 23:33 UTC. Time now 2014-Sep-21 00:03 UTC.
Position N 34°37' E 135°26'.

Length 164 m; draft 5 m.

Type: Passenger vessel. MMSI: 431501603.

Date/timePositionNaut miles runAvg speedWind from/ knotsBaromVisibWave heightAir tempDewpointWater temp
2014-Sep-20 23:33N 34°37' E 135°26'0 0.0
2014-Sep-20 22:27N 34°37' E 135°26'0 0.0
2014-Sep-20 21:33N 34°37' E 135°26'6 5.7
2014-Sep-20 20:33N 34°36' E 135°19'1817.6
2014-Sep-20 19:33N 34°37' E 134°58'9 0.3
2014-Sep-19 15:04N 34°33' E 134°48'1017.9
2014-Sep-19 14:31N 34°37' E 134°59'1717.7
2014-Sep-19 13:33N 34°36' E 135°20'5 5.0
2014-Sep-19 12:30N 34°37' E 135°26'0 0.0
2014-Sep-19 11:30N 34°37' E 135°26'0 0.0
2014-Sep-19 10:24N 34°37' E 135°26'0 0.0
2014-Sep-19 09:12N 34°37' E 135°26'0 0.0
2014-Sep-19 08:24N 34°37' E 135°26'0 0.0
2014-Sep-19 07:30N 34°37' E 135°26'0 0.0
2014-Sep-19 06:30N 34°37' E 135°26'0 0.0
2014-Sep-19 05:30N 34°37' E 135°26'0 0.0
2014-Sep-19 04:30N 34°37' E 135°26'0 0.0
2014-Sep-19 03:30N 34°37' E 135°26'0 0.0
2014-Sep-19 02:30N 34°37' E 135°26'0 0.0
2014-Sep-19 01:30N 34°37' E 135°26'0 0.0
2014-Sep-19 00:12N 34°37' E 135°26'0 0.0
2014-Sep-18 23:18N 34°37' E 135°26'0 0.0
2014-Sep-18 22:30N 34°37' E 135°26'0 0.0
2014-Sep-18 21:12N 34°37' E 135°26'6 9.6
2014-Sep-18 20:33N 34°36' E 135°18'1717.4
2014-Sep-18 19:33N 34°36' E 134°57'1 0.0
2014-Sep-17 14:32N 34°37' E 134°58'1717.4
2014-Sep-17 13:33N 34°37' E 135°19'6 5.9
2014-Sep-17 12:33N 34°37' E 135°26'0 0.0
2014-Sep-17 11:34N 34°37' E 135°26'0 0.0
2014-Sep-17 10:09N 34°37' E 135°26'0 0.0
2014-Sep-17 09:33N 34°37' E 135°26'0 0.0
2014-Sep-17 08:27N 34°37' E 135°26'0 0.0
2014-Sep-17 07:21N 34°37' E 135°26'0 0.0
2014-Sep-17 06:34N 34°37' E 135°26'0 0.0
2014-Sep-17 05:33N 34°37' E 135°26'0 0.0
2014-Sep-17 04:33N 34°37' E 135°26'0 0.0
2014-Sep-17 03:33N 34°37' E 135°26'0 0.0
2014-Sep-17 02:34N 34°37' E 135°26'0 0.0
2014-Sep-17 01:33N 34°37' E 135°26'0 0.0
2014-Sep-17 00:34N 34°37' E 135°26'0 0.0
2014-Sep-16 23:15N 34°37' E 135°26'0 0.0
2014-Sep-16 22:28N 34°37' E 135°26'0 0.0
2014-Sep-16 21:28N 34°37' E 135°26'6 6.5
2014-Sep-16 20:34N 34°36' E 135°19'1918.7
2014-Sep-16 19:33N 34°36' E 134°56'2 0.1
2014-Sep-15 14:32N 34°37' E 134°58'1717.5
2014-Sep-15 13:33N 34°37' E 135°19'6 6.0
2014-Sep-15 12:33N 34°37' E 135°26'0 0.0
2014-Sep-15 11:33N 34°37' E 135°26'0 0.0
2014-Sep-15 10:33N 34°37' E 135°26'0 0.0
2014-Sep-15 09:33N 34°37' E 135°26'0 0.0
2014-Sep-15 08:27N 34°37' E 135°26'0 0.0
2014-Sep-15 07:33N 34°37' E 135°26'0 0.0
2014-Sep-15 06:33N 34°37' E 135°26'0 0.0
2014-Sep-15 05:33N 34°37' E 135°26'0 0.0
2014-Sep-15 04:33N 34°37' E 135°26'0 0.0
2014-Sep-15 03:33N 34°37' E 135°26'0 0.0
2014-Sep-15 02:15N 34°37' E 135°26'0 0.0
2014-Sep-15 01:33N 34°37' E 135°26'0 0.0
2014-Sep-15 00:33N 34°37' E 135°26'0 0.0
2014-Sep-14 23:33N 34°37' E 135°26'0 0.0
2014-Sep-14 22:27N 34°37' E 135°26'0 0.0
2014-Sep-14 21:33N 34°37' E 135°26'6 5.8
2014-Sep-14 20:33N 34°36' E 135°19'1817.8
2014-Sep-14 19:34N 34°37' E 134°57'1 0.0
2014-Sep-13 14:31N 34°37' E 134°57'1818.9
2014-Sep-13 13:33N 34°37' E 135°19'6 5.5
2014-Sep-13 12:30N 34°37' E 135°26'0 0.0
2014-Sep-13 11:30N 34°37' E 135°26'0 0.0
2014-Sep-13 10:30N 34°37' E 135°26'0 0.0
2014-Sep-13 09:30N 34°37' E 135°26'0 0.0
2014-Sep-13 08:30N 34°37' E 135°26'0 0.0
2014-Sep-13 07:30N 34°37' E 135°26'0 0.0
2014-Sep-13 06:30N 34°37' E 135°26'0 0.0
2014-Sep-13 05:24N 34°37' E 135°26'0 0.0
2014-Sep-13 04:30N 34°37' E 135°26'0 0.0
2014-Sep-13 03:30N 34°37' E 135°26'0 0.0
2014-Sep-13 02:30N 34°37' E 135°26'0 0.0
2014-Sep-13 01:30N 34°37' E 135°26'0 0.0
2014-Sep-13 00:30N 34°37' E 135°26'0 0.0
2014-Sep-12 23:30N 34°37' E 135°26'0 0.0
2014-Sep-12 22:30N 34°37' E 135°26'0 0.0
2014-Sep-12 21:30N 34°37' E 135°26'5 5.4
2014-Sep-12 20:34N 34°36' E 135°20'1817.8
2014-Sep-12 19:33N 34°37' E 134°58'1 0.0
2014-Sep-11 14:33N 34°37' E 134°57'1818.2
2014-Sep-11 13:33N 34°36' E 135°19'6 5.9
2014-Sep-11 12:32N 34°37' E 135°26'0 0.0
2014-Sep-11 11:32N 34°37' E 135°26'0 0.0
2014-Sep-11 10:32N 34°37' E 135°26'0 0.0
2014-Sep-11 09:26N 34°37' E 135°26'0 0.0
2014-Sep-11 08:32N 34°37' E 135°26'0 0.0
2014-Sep-11 07:32N 34°37' E 135°26'0 0.0
2014-Sep-11 06:26N 34°37' E 135°26'0 0.0
2014-Sep-11 05:32N 34°37' E 135°26'0 0.0
2014-Sep-11 04:26N 34°37' E 135°26'0 0.0
2014-Sep-11 03:32N 34°37' E 135°26'0 0.0
2014-Sep-11 02:32N 34°37' E 135°26'0 0.0
2014-Sep-11 01:32N 34°37' E 135°26'0 0.0
2014-Sep-11 00:32N 34°37' E 135°26'  

Dump ship's entire track history